Nearby METAR Reports

 

NZCH - Christchurch Int, New Zealand
Distance from station: W 10km
Updated: 20 Feb 2018 10:00
Rain, Mostly cloudy
Rain, Mostly cloudy
 Wind from SE
Wind: SE 6 km/h
Temperature: 12°C
Dew Point: 11°C
Humidity: 94%
Barometer: 1010 hPa
Summary: Rain
Clouds: Mostly cloudy
Visibility: 8 km
Cloud details: Few Clouds 823 m
Partly cloudy 1128 m
Mostly cloudy 1402 m
2018/02/19 21:00 NZCH 192100Z AUTO 13003KT 8000 RA FEW027/// SCT037/// BKN046/// 12/11 Q1010 TEMPO 3000 RADZ BKN012